Time;durP1;ratioP1;P1;durP2;ratioP2;P2;SDS_P1;SDS_P2;PMS_P1;PMS_P2;Temp;Humidity;BMP_temperature;BMP_pressure;BME280_temperature;BME280_humidity;BME280_pressure;Samples;Min_cycle;Max_cycle;Signal;HPM_P1;HPM_P2
2023/01/12 00:01:22;;;;;;;7.22;1.85;;;;;;;9.91;97.05;99911.00;5037294;28;20115;-69
2023/01/12 00:03:49;;;;;;;10.32;1.92;;;;;;;9.93;97.00;99914.09;5050432;28;20025;-68
2023/01/12 00:06:14;;;;;;;6.68;1.48;;;;;;;9.96;96.74;99926.03;5042217;28;20029;-68
2023/01/12 00:08:40;;;;;;;5.60;1.63;;;;;;;9.94;96.95;99904.88;5042493;28;20037;-68
2023/01/12 00:11:06;;;;;;;1.73;1.40;;;;;;;9.82;97.54;99901.66;5046088;28;20044;-68
2023/01/12 00:13:32;;;;;;;1.90;1.10;;;;;;;9.92;97.15;99882.19;5049035;28;20044;-67
2023/01/12 00:18:44;;;;;;;8.32;1.50;;;;;;;9.96;96.84;99883.00;5038381;28;20044;-67
2023/01/12 00:21:09;;;;;;;3.25;1.20;;;;;;;10.06;96.86;99890.41;5050992;28;20028;-68
2023/01/12 00:23:34;;;;;;;1.48;0.90;;;;;;;10.03;96.47;99891.91;5057776;28;20029;-68
2023/01/12 00:26:00;;;;;;;4.38;1.52;;;;;;;9.99;97.36;99888.41;5039659;28;20036;-68
2023/01/12 00:28:25;;;;;;;10.00;1.67;;;;;;;9.93;98.05;99886.41;5042702;28;20037;-68
2023/01/12 00:30:51;;;;;;;3.10;1.00;;;;;;;9.87;97.93;99896.72;5040828;28;20029;-68
2023/01/12 00:33:18;;;;;;;3.20;1.50;;;;;;;9.85;98.04;99890.94;5044684;28;20118;-67
2023/01/12 00:35:44;;;;;;;4.38;1.20;;;;;;;10.01;97.25;99883.44;5059553;28;20117;-68
2023/01/12 00:38:09;;;;;;;3.45;1.40;;;;;;;9.93;97.67;99878.34;5044940;28;20472;-68
2023/01/12 00:40:35;;;;;;;4.85;1.20;;;;;;;10.02;97.17;99897.66;5037893;28;20514;-67
2023/01/12 00:45:49;;;;;;;1.85;0.90;;;;;;;10.14;96.07;99883.22;5044662;28;20489;-68
2023/01/12 00:48:15;;;;;;;4.50;1.85;;;;;;;10.04;96.52;99892.69;5034834;28;20451;-68
2023/01/12 00:50:41;;;;;;;2.90;1.50;;;;;;;10.04;96.55;99890.00;5042891;28;20108;-68
2023/01/12 00:53:06;;;;;;;4.15;1.30;;;;;;;10.09;96.96;99883.50;5045774;28;20124;-68
2023/01/12 00:55:32;;;;;;;7.40;1.48;;;;;;;10.10;96.89;99877.00;5042058;28;20036;-69
2023/01/12 00:57:57;;;;;;;3.85;1.00;;;;;;;9.97;97.51;99888.00;5048320;28;20036;-69
2023/01/12 01:00:23;;;;;;;6.28;2.15;;;;;;;10.07;97.33;99875.03;5046013;28;20502;-68
2023/01/12 01:02:48;;;;;;;4.72;1.50;;;;;;;10.05;97.45;99872.72;5043089;28;20036;-70
2023/01/12 01:05:14;;;;;;;6.00;1.30;;;;;;;10.06;97.47;99860.81;5047501;28;20039;-69
2023/01/12 01:07:40;;;;;;;1.48;0.90;;;;;;;9.88;98.25;99866.03;5043846;28;20029;-69
2023/01/12 01:10:06;;;;;;;1.33;1.00;;;;;;;9.79;98.27;99857.47;5046186;28;20074;-70
2023/01/12 01:12:32;;;;;;;4.80;1.42;;;;;;;10.02;98.60;99865.38;5041663;28;20033;-69
2023/01/12 01:14:57;;;;;;;7.18;1.40;;;;;;;10.06;97.27;99868.88;5036527;28;20072;-69
2023/01/12 01:17:23;;;;;;;3.63;1.20;;;;;;;10.08;97.15;99863.13;5046734;28;20052;-69
2023/01/12 01:19:48;;;;;;;8.52;1.42;;;;;;;10.03;96.82;99865.00;5046682;28;20047;-69
2023/01/12 01:22:14;;;;;;;3.83;1.10;;;;;;;10.07;97.02;99873.09;5048926;28;20157;-69
2023/01/12 01:24:40;;;;;;;4.60;1.27;;;;;;;10.15;96.85;99874.75;5042634;28;20473;-69
2023/01/12 01:27:05;;;;;;;1.25;0.95;;;;;;;10.10;96.38;99867.03;5038058;28;20080;-69
2023/01/12 01:29:31;;;;;;;5.85;1.45;;;;;;;10.06;96.45;99871.56;5038096;28;20076;-69
2023/01/12 01:31:56;;;;;;;2.67;1.27;;;;;;;10.01;96.03;99869.22;5041224;28;20028;-69
2023/01/12 01:34:24;;;;;;;1.10;1.00;;;;;;;10.18;96.10;99870.56;5035765;28;20037;-69
2023/01/12 01:36:50;;;;;;;5.00;1.80;;;;;;;10.24;96.01;99859.06;5058410;28;20412;-69
2023/01/12 01:39:15;;;;;;;7.53;1.35;;;;;;;10.30;95.32;99862.97;5048588;22;20040;-67
2023/01/12 01:41:41;;;;;;;4.32;1.27;;;;;;;10.28;95.14;99862.56;5045471;28;20024;-67
2023/01/12 01:44:28;;;;;;;10.25;1.70;;;;;;;10.28;94.98;99859.13;5039967;28;20040;-67
2023/01/12 01:47:04;;;;;;;4.20;1.48;;;;;;;10.28;94.73;99853.75;5046592;28;20393;-67
2023/01/12 01:49:35;;;;;;;3.65;1.75;;;;;;;10.38;94.39;99850.34;5045977;28;20396;-67
2023/01/12 01:52:13;;;;;;;2.85;1.20;;;;;;;10.29;94.83;99850.69;5041857;28;20051;-67
2023/01/12 01:55:00;;;;;;;7.50;1.35;;;;;;;10.39;94.64;99852.69;5037402;28;20039;-67
2023/01/12 01:57:32;;;;;;;0.70;0.70;;;;;;;10.34;94.47;99844.16;5006235;28;20129;-67
2023/01/12 01:59:59;;;;;;;1.25;0.95;;;;;;;10.36;94.17;99848.03;5003167;28;20060;-67
2023/01/12 02:02:25;;;;;;;2.42;1.08;;;;;;;10.40;94.31;99848.84;5002749;28;20161;-67
2023/01/12 02:04:54;;;;;;;2.03;1.10;;;;;;;10.41;93.88;99846.91;5006529;28;20037;-67
2023/01/12 02:07:19;;;;;;;1.70;1.08;;;;;;;10.36;93.88;99842.66;5007244;28;20034;-67
2023/01/12 02:09:45;;;;;;;1.02;0.85;;;;;;;10.36;93.72;99847.25;5004377;28;20477;-67
2023/01/12 02:18:21;;;;;;;2.45;1.33;;;;;;;10.46;93.59;99836.56;5000340;28;21128;-67
2023/01/12 02:21:28;;;;;;;4.13;1.13;;;;;;;10.47;93.23;99827.34;5005259;28;20141;-67
2023/01/12 02:24:26;;;;;;;4.53;1.00;;;;;;;10.48;93.75;99818.13;4982662;28;20050;-67
2023/01/12 02:27:16;;;;;;;0.88;0.88;;;;;;;10.57;93.29;99834.72;4984131;28;20041;-67
2023/01/12 02:30:20;;;;;;;3.72;1.02;;;;;;;10.47;93.65;99832.72;4987979;28;20485;-67
2023/01/12 02:32:48;;;;;;;4.00;1.30;;;;;;;10.52;93.24;99834.31;4998457;28;20054;-67
2023/01/12 02:35:44;;;;;;;2.05;1.42;;;;;;;10.53;93.34;99833.91;5034305;28;20049;-67
2023/01/12 02:38:25;;;;;;;2.60;0.80;;;;;;;10.58;93.67;99833.59;5025097;28;20041;-67
2023/01/12 02:40:58;;;;;;;3.80;1.02;;;;;;;10.60;93.57;99825.13;5039263;28;20028;-67
2023/01/12 02:43:28;;;;;;;0.77;0.77;;;;;;;10.68;92.82;99821.34;5044045;28;20025;-67
2023/01/12 02:46:15;;;;;;;1.67;1.02;;;;;;;10.51;93.20;99830.84;5030458;28;20064;-67
2023/01/12 02:48:55;;;;;;;2.08;0.90;;;;;;;10.50;92.93;99837.38;5034730;28;20055;-67
2023/01/12 02:51:28;;;;;;;5.00;1.08;;;;;;;10.67;93.31;99835.94;5045637;28;20032;-67
2023/01/12 02:54:00;;;;;;;3.03;0.70;;;;;;;10.44;94.29;99835.41;5045187;28;20529;-67
2023/01/12 02:56:47;;;;;;;1.73;0.90;;;;;;;10.56;93.25;99821.66;5043163;28;20116;-67
2023/01/12 02:59:36;;;;;;;6.75;1.40;;;;;;;10.47;94.06;99827.34;5049479;28;20049;-67
2023/01/12 03:02:06;;;;;;;1.90;0.80;;;;;;;10.49;94.43;99835.06;5034029;28;20281;-67
2023/01/12 03:04:32;;;;;;;0.70;0.70;;;;;;;10.57;93.64;99832.03;5047509;28;20085;-67
2023/01/12 03:06:57;;;;;;;3.10;1.10;;;;;;;10.53;93.93;99825.09;5032086;28;20036;-67
2023/01/12 03:09:28;;;;;;;3.58;1.33;;;;;;;10.61;93.51;99827.44;5049143;28;20040;-67
2023/01/12 03:12:01;;;;;;;2.70;0.98;;;;;;;10.55;93.76;99833.56;5008015;28;20457;-67
2023/01/12 03:14:30;;;;;;;1.45;0.90;;;;;;;10.57;94.05;99832.03;5041889;28;20116;-67
2023/01/12 03:16:56;;;;;;;5.70;1.17;;;;;;;10.60;94.09;99839.38;5048732;28;20051;-67
2023/01/12 03:19:28;;;;;;;0.90;0.68;;;;;;;10.64;93.32;99836.69;5027345;28;20037;-67
2023/01/12 03:22:00;;;;;;;5.30;0.98;;;;;;;10.58;93.29;99827.44;5046681;28;20052;-67
2023/01/12 03:24:30;;;;;;;2.42;1.23;;;;;;;10.55;93.27;99825.50;5048874;28;20029;-67
2023/01/12 03:27:07;;;;;;;0.70;0.55;;;;;;;10.51;93.40;99822.00;5037073;28;20045;-67
2023/01/12 03:29:34;;;;;;;1.58;0.88;;;;;;;10.55;93.81;99828.94;5041620;28;20041;-67
2023/01/12 03:32:00;;;;;;;2.22;0.70;;;;;;;10.51;92.76;99817.38;5043605;28;20049;-67
2023/01/12 03:34:26;;;;;;;1.13;0.85;;;;;;;10.35;93.43;99829.56;5041372;28;20085;-67
2023/01/12 03:37:23;;;;;;;6.10;1.45;;;;;;;10.38;93.38;99824.22;5042953;28;20037;-67
2023/01/12 03:39:52;;;;;;;2.35;0.57;;;;;;;10.39;93.09;99825.78;5033905;28;20047;-67
2023/01/12 03:42:24;;;;;;;4.78;0.70;;;;;;;10.27;93.43;99814.50;5041382;28;20116;-67
2023/01/12 03:45:08;;;;;;;1.45;0.85;;;;;;;10.28;93.58;99816.06;5041037;28;20044;-67
2023/01/12 03:47:35;;;;;;;0.70;0.65;;;;;;;10.30;93.50;99821.84;5037794;28;20388;-67
2023/01/12 03:50:23;;;;;;;0.60;0.60;;;;;;;10.31;93.44;99813.41;5031003;28;20040;-67
2023/01/12 03:52:50;;;;;;;1.25;0.60;;;;;;;10.46;92.38;99814.25;5042554;28;20041;-67
2023/01/12 03:55:21;;;;;;;4.40;0.63;;;;;;;10.44;92.59;99806.56;5045197;28;20497;-67
2023/01/12 03:57:49;;;;;;;1.20;0.60;;;;;;;10.51;91.92;99811.25;5039455;28;20045;-67
2023/01/12 04:00:18;;;;;;;1.77;0.80;;;;;;;10.42;92.52;99808.09;5029277;28;20647;-67
2023/01/12 04:02:44;;;;;;;1.75;0.70;;;;;;;10.41;92.50;99807.34;5023837;28;20044;-67
2023/01/12 04:05:12;;;;;;;3.13;0.68;;;;;;;10.41;92.69;99791.19;5044023;28;20041;-67
2023/01/12 04:07:37;;;;;;;1.10;0.60;;;;;;;10.33;93.42;99794.97;5048215;28;20044;-67
2023/01/12 04:10:03;;;;;;;0.47;0.47;;;;;;;10.42;93.15;99795.41;5041221;28;20041;-67
2023/01/12 04:12:29;;;;;;;3.70;0.65;;;;;;;10.41;93.21;99796.56;5019547;28;20021;-67
2023/01/12 04:14:54;;;;;;;6.80;1.30;;;;;;;10.47;92.99;99795.03;5037771;28;20044;-67
2023/01/12 04:17:23;;;;;;;1.75;0.90;;;;;;;10.51;92.47;99790.47;5047869;28;20048;-67
2023/01/12 04:19:52;;;;;;;1.38;0.82;;;;;;;10.51;93.37;99793.16;5037452;28;20032;-67
2023/01/12 04:25:01;;;;;;;6.25;1.17;;;;;;;10.64;92.78;99789.03;5042949;28;20124;-67
2023/01/12 04:27:27;;;;;;;0.70;0.70;;;;;;;10.56;93.34;99784.72;5046651;28;20151;-67
2023/01/12 04:29:53;;;;;;;1.33;0.63;;;;;;;10.55;93.84;99772.41;5033639;28;20500;-67
2023/01/12 04:32:19;;;;;;;2.92;0.40;;;;;;;10.44;93.78;99771.56;5048200;28;20040;-67
2023/01/12 04:34:45;;;;;;;1.83;0.80;;;;;;;10.51;94.35;99784.31;5043902;28;20028;-67
2023/01/12 04:37:10;;;;;;;2.47;0.90;;;;;;;10.59;93.95;99780.50;5038757;28;20025;-67
2023/01/12 04:39:35;;;;;;;2.95;1.00;;;;;;;10.48;93.99;99780.44;5018032;28;20029;-67
2023/01/12 04:42:02;;;;;;;0.80;0.75;;;;;;;10.44;94.44;99768.88;5034761;28;20068;-67
2023/01/12 04:44:27;;;;;;;2.15;0.77;;;;;;;10.30;94.93;99773.41;5025100;28;20068;-68
2023/01/12 04:46:53;;;;;;;2.20;0.77;;;;;;;10.15;95.96;99756.38;5049757;28;20047;-67
2023/01/12 04:49:18;;;;;;;0.50;0.50;;;;;;;10.37;95.77;99751.94;5048320;28;20067;-67
2023/01/12 04:51:44;;;;;;;0.90;0.77;;;;;;;10.32;96.24;99755.72;5040590;28;20033;-67
2023/01/12 04:54:10;;;;;;;3.45;0.60;;;;;;;10.43;95.50;99750.44;5032590;28;20034;-67
2023/01/12 04:56:35;;;;;;;4.88;1.10;;;;;;;10.57;94.60;99751.28;5041007;28;20039;-67
2023/01/12 04:59:01;;;;;;;0.63;0.60;;;;;;;10.62;94.35;99742.84;5023866;28;20120;-67
2023/01/12 05:01:28;;;;;;;8.85;0.98;;;;;;;10.54;93.75;99749.34;5041343;28;20485;-67
2023/01/12 05:03:56;;;;;;;1.85;1.10;;;;;;;10.54;94.12;99743.97;5035295;28;20482;-67
2023/01/12 05:06:22;;;;;;;2.67;0.80;;;;;;;10.49;94.42;99741.59;5020136;28;20036;-67
2023/01/12 05:11:31;;;;;;;1.00;0.90;;;;;;;10.58;94.63;99739.38;5027574;28;20474;-67
2023/01/12 05:13:57;;;;;;;1.02;0.50;;;;;;;10.62;94.23;99732.09;5045579;28;20083;-67
2023/01/12 05:16:23;;;;;;;1.48;0.68;;;;;;;10.71;93.80;99727.13;5037588;28;20059;-67
2023/01/12 05:18:49;;;;;;;1.90;0.80;;;;;;;10.70;93.75;99720.16;5032920;28;20029;-68
2023/01/12 05:21:16;;;;;;;2.22;0.57;;;;;;;10.78;93.37;99710.22;5034346;28;20032;-67
2023/01/12 05:23:43;;;;;;;1.45;0.60;;;;;;;10.80;93.42;99716.00;5020573;28;20444;-67
2023/01/12 05:26:09;;;;;;;0.77;0.73;;;;;;;10.73;94.23;99716.75;5024470;28;20087;-67
2023/01/12 05:28:35;;;;;;;3.60;0.60;;;;;;;10.72;94.58;99704.41;5037038;28;20037;-67
2023/01/12 05:31:06;;;;;;;1.45;0.60;;;;;;;10.76;94.72;99707.88;5040120;28;20288;-67
2023/01/12 05:33:32;;;;;;;9.15;1.05;;;;;;;10.50;95.73;99694.72;5027416;28;20492;-67
2023/01/12 05:35:57;;;;;;;1.90;1.05;;;;;;;10.57;96.83;99700.13;5039190;28;20136;-68
2023/01/12 05:38:23;;;;;;;1.98;0.93;;;;;;;10.47;97.40;99700.84;5042165;28;20469;-67
2023/01/12 05:40:48;;;;;;;2.30;1.30;;;;;;;10.51;97.76;99688.16;5012090;28;20044;-67
2023/01/12 05:46:05;;;;;;;2.40;0.82;;;;;;;10.37;100.00;99677.34;5037590;28;20041;-68
2023/01/12 05:48:31;;;;;;;1.23;0.80;;;;;;;10.48;100.00;99674.69;5041149;28;20474;-67
2023/01/12 05:51:01;;;;;;;1.27;0.68;;;;;;;10.49;99.73;99662.78;5029534;28;20044;-67
2023/01/12 05:53:27;;;;;;;0.60;0.60;;;;;;;10.59;98.91;99662.81;5027501;28;20116;-67
2023/01/12 05:55:53;;;;;;;0.80;0.80;;;;;;;10.50;99.79;99645.47;5033770;28;20033;-67
2023/01/12 05:58:18;;;;;;;2.35;1.00;;;;;;;10.56;99.81;99652.81;5034676;28;20116;-67
2023/01/12 06:00:43;;;;;;;3.83;1.23;;;;;;;10.57;99.77;99643.59;5015841;28;20052;-67
2023/01/12 06:03:09;;;;;;;1.13;0.70;;;;;;;10.39;100.00;99632.00;5038170;28;20370;-67
2023/01/12 06:05:34;;;;;;;3.53;1.00;;;;;;;10.48;100.00;99632.41;5021607;28;20485;-67
2023/01/12 06:08:01;;;;;;;2.08;1.42;;;;;;;10.48;100.00;99621.66;5042042;28;20036;-67
2023/01/12 06:10:27;;;;;;;2.45;1.05;;;;;;;10.58;100.00;99614.75;5017802;28;20041;-67
2023/01/12 06:15:37;;;;;;;1.55;1.00;;;;;;;10.43;100.00;99608.53;5027541;28;20413;-67
2023/01/12 06:18:02;;;;;;;3.60;1.20;;;;;;;10.43;100.00;99605.84;5031866;28;20047;-67
2023/01/12 06:20:28;;;;;;;1.05;0.98;;;;;;;10.38;100.00;99600.06;5039705;28;20052;-67
2023/01/12 06:22:54;;;;;;;3.75;1.20;;;;;;;10.40;100.00;99611.22;5043757;28;20036;-67
2023/01/12 06:25:20;;;;;;;3.28;1.05;;;;;;;10.42;100.00;99598.94;5033469;28;20045;-67
2023/01/12 06:27:45;;;;;;;0.80;0.70;;;;;;;10.55;100.00;99610.16;5034245;28;20145;-67
2023/01/12 06:30:11;;;;;;;1.67;1.27;;;;;;;10.65;100.00;99588.63;5038663;28;20104;-67
2023/01/12 06:32:37;;;;;;;1.52;1.08;;;;;;;10.58;100.00;99588.59;5027255;28;20784;-67
2023/01/12 06:35:03;;;;;;;2.45;1.20;;;;;;;10.39;100.00;99582.78;5025080;28;20638;-67
2023/01/12 06:37:49;;;;;;;10.93;1.63;;;;;;;10.32;100.00;99580.03;5032473;28;20049;-67
2023/01/12 06:40:15;;;;;;;2.58;1.30;;;;;;;10.09;100.00;99579.53;4953213;28;20546;-67
2023/01/12 06:42:40;;;;;;;4.95;1.52;;;;;;;10.20;100.00;99567.69;4950817;28;20058;-67
2023/01/12 06:45:07;;;;;;;6.63;1.48;;;;;;;10.13;100.00;99564.22;4949501;28;20047;-67
2023/01/12 06:47:32;;;;;;;2.08;0.90;;;;;;;10.24;100.00;99576.56;4950454;28;20031;-67
2023/01/12 06:49:58;;;;;;;1.63;1.10;;;;;;;10.35;100.00;99558.56;4951294;28;20425;-67
2023/01/12 06:52:26;;;;;;;5.00;1.17;;;;;;;10.43;100.00;99557.41;4949809;28;20051;-67
2023/01/12 06:54:52;;;;;;;2.28;0.93;;;;;;;10.27;100.00;99556.97;4957286;28;20035;-68
2023/01/12 06:57:18;;;;;;;3.35;1.27;;;;;;;10.39;100.00;99547.78;4961922;28;20047;-67
2023/01/12 06:59:43;;;;;;;7.82;1.83;;;;;;;10.35;100.00;99539.72;4955600;28;20058;-67
2023/01/12 07:02:13;;;;;;;1.00;0.90;;;;;;;10.45;100.00;99535.50;4957180;28;20451;-67
2023/01/12 07:04:40;;;;;;;1.67;0.93;;;;;;;10.52;100.00;99540.91;4949436;28;20043;-67
2023/01/12 07:07:07;;;;;;;1.05;0.90;;;;;;;10.50;100.00;99535.91;4934411;28;20106;-68
2023/01/12 07:09:32;;;;;;;4.93;1.60;;;;;;;10.51;100.00;99525.91;4948817;28;20472;-67
2023/01/12 07:11:58;;;;;;;3.30;1.30;;;;;;;10.48;100.00;99522.06;4951294;28;20043;-67
2023/01/12 07:14:23;;;;;;;1.30;1.20;;;;;;;10.51;100.00;99510.50;4943995;28;20731;-67
2023/01/12 07:16:49;;;;;;;1.88;1.20;;;;;;;10.63;100.00;99504.78;4982611;28;20056;-67
2023/01/12 07:19:14;;;;;;;1.20;1.15;;;;;;;10.66;100.00;99503.25;5037275;28;20122;-67
2023/01/12 07:21:40;;;;;;;1.80;1.25;;;;;;;10.51;100.00;99486.28;5031478;28;20029;-67
2023/01/12 07:24:05;;;;;;;1.30;0.90;;;;;;;10.73;100.00;99485.16;5013997;28;20448;-68
2023/01/12 07:26:31;;;;;;;3.00;1.35;;;;;;;10.59;100.00;99484.38;5018483;28;20044;-67
2023/01/12 07:28:56;;;;;;;0.98;0.90;;;;;;;10.66;100.00;99482.47;5025987;28;20562;-68
2023/01/12 07:31:22;;;;;;;1.73;0.70;;;;;;;10.65;100.00;99474.75;5006625;28;20037;-68
2023/01/12 07:33:52;;;;;;;1.52;1.10;;;;;;;10.64;100.00;99460.56;5027382;28;20083;-67
2023/01/12 07:36:17;;;;;;;1.27;1.05;;;;;;;10.65;100.00;99456.69;5028281;28;20028;-67
2023/01/12 07:38:43;;;;;;;0.90;0.70;;;;;;;10.45;100.00;99458.22;5043366;22;20532;-70
2023/01/12 07:44:13;;;;;;;3.10;1.05;;;;;;;10.47;100.00;99444.41;4979329;28;20491;-67
2023/01/12 07:46:38;;;;;;;4.63;1.52;;;;;;;10.29;100.00;99438.22;4969076;28;20101;-67
2023/01/12 07:49:04;;;;;;;1.30;1.20;;;;;;;10.51;100.00;99435.16;4975965;28;20055;-68
2023/01/12 07:51:30;;;;;;;0.90;0.90;;;;;;;10.67;100.00;99435.53;4959847;28;20122;-67
2023/01/12 07:53:56;;;;;;;2.38;1.00;;;;;;;10.65;100.00;99432.47;4965966;28;20038;-68
2023/01/12 07:56:21;;;;;;;1.70;0.77;;;;;;;10.65;100.00;99431.69;4953124;28;20043;-69
2023/01/12 07:58:48;;;;;;;2.85;0.75;;;;;;;10.51;100.00;99424.38;4951366;28;20034;-68
2023/01/12 08:01:14;;;;;;;0.77;0.77;;;;;;;10.33;100.00;99417.47;4964894;28;20519;-70
2023/01/12 08:03:39;;;;;;;1.23;0.68;;;;;;;10.45;100.00;99412.47;4967450;28;20045;-69
2023/01/12 08:06:05;;;;;;;0.70;0.70;;;;;;;10.60;100.00;99421.31;4969990;28;20041;-68
2023/01/12 08:08:31;;;;;;;1.05;0.60;;;;;;;10.56;100.00;99415.16;4971105;28;20046;-68
2023/01/12 08:11:01;;;;;;;2.53;0.90;;;;;;;10.61;100.00;99407.47;4960901;28;20042;-70
2023/01/12 08:13:26;;;;;;;1.95;0.80;;;;;;;10.43;100.00;99409.38;4950448;28;20035;-68
2023/01/12 08:15:53;;;;;;;0.73;0.70;;;;;;;10.38;100.00;99393.63;4972764;28;20106;-68
2023/01/12 08:18:26;;;;;;;1.42;0.70;;;;;;;10.37;100.00;99391.31;4969059;28;20046;-68
2023/01/12 08:20:53;;;;;;;1.75;0.50;;;;;;;10.42;100.00;99380.16;5002356;28;20049;-69
2023/01/12 08:23:28;;;;;;;0.63;0.63;;;;;;;10.51;100.00;99375.94;5027019;28;20044;-68
2023/01/12 08:25:58;;;;;;;0.55;0.50;;;;;;;10.60;100.00;99368.25;5040039;28;20068;-69
2023/01/12 08:28:29;;;;;;;0.45;0.45;;;;;;;10.68;100.00;99361.69;5041461;28;20035;-70
2023/01/12 08:30:55;;;;;;;0.30;0.30;;;;;;;10.61;100.00;99364.41;5039091;28;20040;-68
2023/01/12 08:33:21;;;;;;;1.60;0.65;;;;;;;10.51;100.00;99369.81;5037677;28;20386;-68
2023/01/12 08:35:47;;;;;;;1.83;0.57;;;;;;;10.44;100.00;99349.03;5028930;28;20067;-68
2023/01/12 08:38:13;;;;;;;0.45;0.45;;;;;;;10.38;100.00;99350.56;5040934;28;20040;-69
2023/01/12 08:46:06;;;;;;;0.32;0.30;;;;;;;10.53;100.00;99335.19;5036535;28;20065;-70
2023/01/12 08:48:36;;;;;;;0.40;0.40;;;;;;;10.47;100.00;99334.78;5031949;28;20166;-70
2023/01/12 08:51:03;;;;;;;0.68;0.52;;;;;;;10.56;100.00;99343.25;5024448;28;20770;-69
2023/01/12 08:53:28;;;;;;;0.40;0.40;;;;;;;10.38;100.00;99334.44;5036343;28;20049;-69
2023/01/12 08:55:54;;;;;;;0.85;0.35;;;;;;;10.40;100.00;99347.50;5034183;28;20655;-69
2023/01/12 08:58:19;;;;;;;0.30;0.30;;;;;;;10.49;100.00;99329.03;5036394;28;20069;-70
2023/01/12 09:00:45;;;;;;;0.35;0.32;;;;;;;10.52;100.00;99323.66;5034764;28;20025;-70
2023/01/12 09:03:10;;;;;;;1.08;0.50;;;;;;;10.56;100.00;99326.34;5008852;28;20519;-69
2023/01/12 09:05:35;;;;;;;3.78;0.50;;;;;;;10.43;100.00;99292.91;5039177;28;20580;-68
2023/01/12 09:08:01;;;;;;;0.30;0.30;;;;;;;10.13;100.00;99306.75;5020543;28;20127;-70
2023/01/12 09:10:26;;;;;;;0.32;0.32;;;;;;;10.15;100.00;99312.53;5043704;28;20045;-69
2023/01/12 09:12:52;;;;;;;0.60;0.30;;;;;;;10.27;100.00;99298.69;5035586;28;20034;-69
2023/01/12 09:15:17;;;;;;;0.30;0.20;;;;;;;10.48;100.00;99311.34;5038391;28;20524;-68
2023/01/12 09:17:43;;;;;;;2.10;0.22;;;;;;;10.44;100.00;99299.81;5040344;28;20124;-69
2023/01/12 09:20:10;;;;;;;1.25;0.35;;;;;;;10.45;100.00;99317.50;5036723;28;20457;-69
2023/01/12 09:22:35;;;;;;;0.65;0.40;;;;;;;10.36;100.00;99311.75;5040157;28;20033;-69
2023/01/12 09:25:01;;;;;;;0.43;0.35;;;;;;;10.45;100.00;99317.50;5040768;28;20101;-68
2023/01/12 09:27:27;;;;;;;0.55;0.30;;;;;;;10.44;100.00;99307.88;5039847;28;20075;-68
2023/01/12 09:29:52;;;;;;;0.30;0.30;;;;;;;10.38;100.00;99315.59;5037827;28;20528;-68
2023/01/12 09:32:18;;;;;;;0.45;0.35;;;;;;;10.32;100.00;99316.34;5031923;28;20094;-69
2023/01/12 09:34:43;;;;;;;0.35;0.35;;;;;;;10.38;100.00;99326.34;5015703;28;20171;-69
2023/01/12 09:37:08;;;;;;;0.20;0.20;;;;;;;10.28;100.00;99307.53;5030833;28;20053;-69
2023/01/12 09:39:34;;;;;;;0.20;0.20;;;;;;;10.32;100.00;99329.81;5020862;28;20025;-69
2023/01/12 09:47:49;;;;;;;0.40;0.25;;;;;;;10.33;100.00;99320.59;5037857;28;20064;-67
2023/01/12 09:50:19;;;;;;;0.88;0.30;;;;;;;10.38;100.00;99312.91;5031185;28;20067;-68
2023/01/12 09:52:55;;;;;;;0.30;0.30;;;;;;;10.47;100.00;99310.56;5036547;28;20307;-68
2023/01/12 09:55:27;;;;;;;0.10;0.10;;;;;;;10.46;100.00;99298.28;5023536;28;20029;-69
2023/01/12 09:58:27;;;;;;;0.20;0.20;;;;;;;10.37;100.00;99311.38;5032551;28;20041;-69
2023/01/12 10:00:56;;;;;;;0.22;0.22;;;;;;;10.45;100.00;99310.19;5033870;28;20052;-69
2023/01/12 10:03:34;;;;;;;1.65;0.40;;;;;;;10.64;100.00;99311.72;5036121;28;20566;-69
2023/01/12 10:06:00;;;;;;;1.75;0.20;;;;;;;10.62;100.00;99304.03;5021684;28;20071;-69
2023/01/12 10:08:37;;;;;;;2.78;0.30;;;;;;;10.58;100.00;99305.19;5028770;28;20816;-68
2023/01/12 10:11:13;;;;;;;0.30;0.20;;;;;;;10.70;100.00;99321.69;5028482;28;20108;-69
2023/01/12 10:13:48;;;;;;;0.22;0.22;;;;;;;10.58;100.00;99307.88;5031021;28;20037;-69
2023/01/12 10:16:27;;;;;;;0.52;0.52;;;;;;;10.73;100.00;99314.75;5034091;28;20147;-68
2023/01/12 10:19:00;;;;;;;0.20;0.20;;;;;;;10.65;100.00;99319.41;5028109;28;20037;-69
2023/01/12 10:21:28;;;;;;;0.47;0.40;;;;;;;10.59;100.00;99312.88;5032229;28;20029;-69
2023/01/12 10:23:54;;;;;;;0.20;0.20;;;;;;;10.76;100.00;99325.53;5031283;28;20033;-68
2023/01/12 10:26:36;;;;;;;1.75;0.63;;;;;;;10.81;100.00;99325.13;5038081;28;20025;-68
2023/01/12 10:29:02;;;;;;;0.40;0.30;;;;;;;10.72;100.00;99319.38;5030194;28;20034;-69
2023/01/12 10:31:28;;;;;;;0.30;0.30;;;;;;;10.84;100.00;99329.72;5039662;28;20054;-67
2023/01/12 10:34:09;;;;;;;0.90;0.60;;;;;;;10.88;100.00;99325.09;5036591;28;20049;-69
2023/01/12 10:36:48;;;;;;;0.40;0.40;;;;;;;10.89;100.00;99318.59;5022088;28;20381;-68
2023/01/12 10:39:34;;;;;;;0.20;0.20;;;;;;;10.97;100.00;99310.47;5032829;28;20072;-68
2023/01/12 10:45:15;;;;;;;0.65;0.63;;;;;;;11.06;100.00;99313.50;5031871;28;20514;-68
2023/01/12 10:47:42;;;;;;;0.40;0.40;;;;;;;11.00;100.00;99313.16;5035601;28;20048;-68
2023/01/12 10:50:23;;;;;;;0.22;0.22;;;;;;;11.08;100.00;99311.19;5003425;28;21009;-69
2023/01/12 10:52:54;;;;;;;0.73;0.47;;;;;;;11.12;100.00;99310.03;5033658;28;20048;-68
2023/01/12 10:55:22;;;;;;;0.30;0.30;;;;;;;11.08;100.00;99311.97;5009563;28;20044;-68
2023/01/12 10:57:49;;;;;;;0.35;0.30;;;;;;;11.25;100.00;99300.34;5040696;28;20032;-68
2023/01/12 11:00:21;;;;;;;0.30;0.30;;;;;;;11.16;100.00;99297.31;5035524;28;20036;-67
2023/01/12 11:02:47;;;;;;;0.20;0.20;;;;;;;11.36;100.00;99303.00;5019778;28;20040;-67
2023/01/12 11:05:28;;;;;;;0.35;0.30;;;;;;;11.34;100.00;99289.88;5029257;28;20034;-68
2023/01/12 11:07:54;;;;;;;;;;;;;;;11.09;100.00;99304.66;5029396;28;20033;-69
2023/01/12 11:10:46;;;;;;;0.17;0.17;;;;;;;11.26;100.00;99295.72;5032489;28;19948;-68
2023/01/12 11:13:22;;;;;;;;;;;;;;;11.23;100.00;99293.78;5020455;28;20124;-68
2023/01/12 11:16:18;;;;;;;0.28;0.28;;;;;;;11.25;100.00;99292.25;5037597;28;19917;-68
2023/01/12 11:18:49;;;;;;;0.52;0.30;;;;;;;11.32;100.00;99286.84;5027280;28;20105;-68
2023/01/12 11:21:19;;;;;;;0.30;0.30;;;;;;;11.36;100.00;99282.19;5029242;28;20069;-69
2023/01/12 11:24:01;;;;;;;0.57;0.50;;;;;;;11.35;100.00;99293.38;5039752;28;20037;-67
2023/01/12 11:26:36;;;;;;;0.40;0.40;;;;;;;11.44;100.00;99291.03;5043200;28;20038;-67
2023/01/12 11:29:37;;;;;;;0.88;0.25;;;;;;;11.48;100.00;99278.25;5044763;28;20057;-69
2023/01/12 11:32:14;;;;;;;0.40;0.20;;;;;;;11.32;100.00;99281.47;4980963;28;20044;-69
2023/01/12 11:34:53;;;;;;;0.30;0.22;;;;;;;11.36;100.00;99276.03;5028166;28;20037;-69
2023/01/12 11:37:19;;;;;;;0.35;0.35;;;;;;;11.39;100.00;99294.13;5045071;28;20061;-69
2023/01/12 11:39:51;;;;;;;0.30;0.30;;;;;;;11.35;100.00;99287.97;5039703;28;20088;-69
2023/01/12 11:45:56;;;;;;;0.40;0.40;;;;;;;11.49;100.00;99287.91;5040373;28;20041;-68
2023/01/12 11:48:42;;;;;;;0.98;0.40;;;;;;;11.58;100.00;99290.91;5003693;28;20047;-68
2023/01/12 11:51:11;;;;;;;0.20;0.20;;;;;;;11.65;100.00;99294.38;5039881;28;20025;-69
2023/01/12 11:53:39;;;;;;;0.52;0.20;;;;;;;11.61;100.00;99280.09;5025642;28;20041;-68
2023/01/12 11:56:17;;;;;;;0.10;0.10;;;;;;;11.67;100.00;99280.50;5020661;28;20036;-69
2023/01/12 11:59:01;;;;;;;1.05;0.50;;;;;;;11.69;100.00;99291.66;5028721;28;20036;-68
2023/01/12 12:01:36;;;;;;;0.25;0.25;;;;;;;11.71;100.00;99281.25;5035913;28;20393;-69
2023/01/12 12:04:21;;;;;;;0.38;0.38;;;;;;;11.71;100.00;99273.16;5030603;28;20025;-68
2023/01/12 12:07:05;;;;;;;0.43;0.30;;;;;;;11.66;100.00;99278.97;5025532;28;20037;-68
2023/01/12 12:09:59;;;;;;;0.40;0.30;;;;;;;11.81;100.00;99282.34;5030778;28;20025;-69
2023/01/12 12:12:43;;;;;;;0.25;0.22;;;;;;;11.84;100.00;99292.31;5041272;28;20115;-70
2023/01/12 12:15:31;;;;;;;0.50;0.30;;;;;;;11.90;100.00;99278.03;5026233;28;20395;-68
2023/01/12 12:18:25;;;;;;;0.55;0.50;;;;;;;11.89;100.00;99284.56;5042071;28;20039;-67
2023/01/12 12:21:12;;;;;;;0.38;0.30;;;;;;;11.90;100.00;99288.81;5035802;28;20037;-68
2023/01/12 12:23:59;;;;;;;0.47;0.40;;;;;;;11.97;100.00;99291.47;5036798;28;20025;-68
2023/01/12 12:26:31;;;;;;;2.47;0.45;;;;;;;12.01;100.00;99294.91;5036781;28;20624;-68